createdAt,value
2019-06-26T00:00:04.310Z,1018.85
2019-06-26T00:01:02.107Z,1018.85
2019-06-26T00:02:02.316Z,1018.85
2019-06-26T00:03:02.422Z,1018.85
2019-06-26T00:04:01.665Z,1018.77
2019-06-26T00:05:01.935Z,1018.77
2019-06-26T00:06:02.613Z,1018.77
2019-06-26T00:07:02.371Z,1018.77
2019-06-26T00:08:01.666Z,1018.92
2019-06-26T00:09:02.043Z,1018.92
2019-06-26T00:10:02.175Z,1018.92
2019-06-26T00:11:02.511Z,1018.92
2019-06-26T00:12:02.626Z,1019.01
2019-06-26T00:13:01.858Z,1019.01
2019-06-26T00:14:02.110Z,1019.01
2019-06-26T00:15:02.371Z,1019.01
2019-06-26T00:16:01.682Z,1018.94
2019-06-26T00:17:01.858Z,1018.94
2019-06-26T00:18:02.128Z,1018.94
2019-06-26T00:19:02.409Z,1018.94
2019-06-26T00:20:02.649Z,1019.01
2019-06-26T00:21:01.939Z,1019.01
2019-06-26T00:22:02.126Z,1019.01
2019-06-26T00:23:02.455Z,1019.01
2019-06-26T00:24:02.503Z,1018.99
2019-06-26T00:25:01.842Z,1018.99
2019-06-26T00:26:02.107Z,1018.99
2019-06-26T00:27:02.272Z,1018.99
2019-06-26T00:28:02.455Z,1018.99
2019-06-26T00:29:02.609Z,1018.99
2019-06-26T00:30:01.962Z,1018.99
2019-06-26T00:31:02.167Z,1018.99
2019-06-26T00:32:02.283Z,1019
2019-06-26T00:33:02.514Z,1019
2019-06-26T00:34:01.778Z,1019
2019-06-26T00:35:02.118Z,1019
2019-06-26T00:36:02.439Z,1018.87
2019-06-26T00:37:02.527Z,1018.87
2019-06-26T00:38:01.743Z,1018.87
2019-06-26T00:39:02.040Z,1018.87
2019-06-26T00:40:02.267Z,1018.97
2019-06-26T00:41:02.496Z,1018.97
2019-06-26T00:42:01.687Z,1018.97
2019-06-26T00:43:01.924Z,1018.97
2019-06-26T00:44:02.105Z,1019.02
2019-06-26T00:45:02.456Z,1019.02
2019-06-26T00:46:02.591Z,1019.02
2019-06-26T00:47:01.832Z,1019.06
2019-06-26T00:48:02.064Z,1019.06
2019-06-26T00:49:02.556Z,1019.06
2019-06-26T00:50:02.451Z,1019.06
2019-06-26T00:51:02.641Z,1019.13
2019-06-26T00:52:01.924Z,1019.13
2019-06-26T00:53:02.176Z,1019.13
2019-06-26T00:54:02.345Z,1019.13
2019-06-26T00:55:02.615Z,1019.01
2019-06-26T00:56:01.857Z,1019.01
2019-06-26T00:57:02.059Z,1019.01
2019-06-26T00:58:02.325Z,1019.01
2019-06-26T00:59:02.558Z,1018.82
2019-06-26T01:00:04.288Z,1018.82
2019-06-26T01:01:02.225Z,1018.82
2019-06-26T01:02:02.438Z,1018.82
2019-06-26T01:03:01.794Z,1018.86
2019-06-26T01:04:01.932Z,1018.86
2019-06-26T01:05:02.273Z,1018.86
2019-06-26T01:06:02.339Z,1018.86
2019-06-26T01:07:02.666Z,1019.07
2019-06-26T01:08:01.831Z,1019.07
2019-06-26T01:09:01.937Z,1019.07
2019-06-26T01:10:02.504Z,1019.07
2019-06-26T01:11:02.440Z,1019.04
2019-06-26T01:12:02.633Z,1019.04
2019-06-26T01:13:01.781Z,1019.04
2019-06-26T01:14:02.101Z,1019.04
2019-06-26T01:15:02.359Z,1019.07
2019-06-26T01:16:02.573Z,1019.07
2019-06-26T01:17:01.842Z,1019.07
2019-06-26T01:18:02.040Z,1019.07
2019-06-26T01:19:02.297Z,1018.94
2019-06-26T01:20:02.599Z,1018.94
2019-06-26T01:21:01.774Z,1018.94
2019-06-26T01:22:01.910Z,1018.94
2019-06-26T01:23:02.133Z,1019
2019-06-26T01:24:02.441Z,1019
2019-06-26T01:25:02.628Z,1019
2019-06-26T01:26:01.899Z,1019
2019-06-26T01:27:02.121Z,1019.02
2019-06-26T01:28:02.360Z,1019.02
2019-06-26T01:29:02.635Z,1019.02
2019-06-26T01:30:01.834Z,1019.02
2019-06-26T01:31:02.042Z,1019.07
2019-06-26T01:32:02.318Z,1019.07
2019-06-26T01:33:02.627Z,1019.07
2019-06-26T01:34:01.793Z,1019.07
2019-06-26T01:35:02.211Z,1019.34
2019-06-26T01:36:02.208Z,1019.34
2019-06-26T01:37:02.430Z,1019.34
2019-06-26T01:38:01.632Z,1019.34
2019-06-26T01:39:01.908Z,1019.34
2019-06-26T01:40:02.050Z,1019.34
2019-06-26T01:41:02.272Z,1019.34
2019-06-26T01:42:04.047Z,1019.34
2019-06-26T01:43:01.827Z,1019.61
2019-06-26T01:44:15.870Z,1019.61
2019-06-26T01:45:02.381Z,1019.61
2019-06-26T01:46:02.545Z,1019.61
2019-06-26T01:47:01.685Z,1019.65
2019-06-26T01:48:01.860Z,1019.65
2019-06-26T01:49:02.135Z,1019.65
2019-06-26T01:50:02.388Z,1019.65
2019-06-26T01:51:01.705Z,1019.66
2019-06-26T01:52:01.843Z,1019.66
2019-06-26T01:53:02.125Z,1019.66
2019-06-26T01:54:02.436Z,1019.66
2019-06-26T01:55:02.898Z,1019.61
2019-06-26T01:56:01.894Z,1019.61
2019-06-26T01:57:02.041Z,1019.61
2019-06-26T01:58:02.271Z,1019.61
2019-06-26T01:59:02.504Z,1019.67
2019-06-26T02:00:03.699Z,1019.67
2019-06-26T02:01:02.514Z,1019.67
2019-06-26T02:02:01.748Z,1019.67
2019-06-26T02:03:02.293Z,1019.72
2019-06-26T02:04:02.168Z,1019.72
2019-06-26T02:05:02.375Z,1019.72
2019-06-26T02:06:01.629Z,1019.72
2019-06-26T02:07:01.843Z,1019.8
2019-06-26T02:08:02.090Z,1019.8
2019-06-26T02:09:02.209Z,1019.8
2019-06-26T02:10:02.472Z,1019.8
2019-06-26T02:11:02.611Z,1019.89
2019-06-26T02:12:01.921Z,1019.89
2019-06-26T02:13:02.084Z,1019.89
2019-06-26T02:14:02.263Z,1019.89
2019-06-26T02:15:02.551Z,1019.89
2019-06-26T02:16:01.633Z,1019.89
2019-06-26T02:17:01.978Z,1019.89
2019-06-26T02:18:02.157Z,1019.89
2019-06-26T02:19:02.368Z,1019.96
2019-06-26T02:20:02.588Z,1019.96
2019-06-26T02:21:01.909Z,1019.96
2019-06-26T02:22:02.111Z,1019.96
2019-06-26T02:23:02.339Z,1019.96
2019-06-26T02:24:02.588Z,1019.96
2019-06-26T02:25:01.782Z,1019.96
2019-06-26T02:26:01.904Z,1019.96
2019-06-26T02:27:02.263Z,1019.94
2019-06-26T02:28:02.396Z,1019.94
2019-06-26T02:29:02.632Z,1019.94
2019-06-26T02:30:01.851Z,1019.95
2019-06-26T02:31:02.020Z,1019.95
2019-06-26T02:32:02.318Z,1019.95
2019-06-26T02:33:02.509Z,1019.95
2019-06-26T02:34:01.823Z,1019.94
2019-06-26T02:35:02.069Z,1019.94
2019-06-26T02:36:02.190Z,1019.94
2019-06-26T02:37:02.532Z,1019.94
2019-06-26T02:38:02.672Z,1020.08
2019-06-26T02:39:01.747Z,1020.08
2019-06-26T02:40:02.118Z,1020.08
2019-06-26T02:41:02.300Z,1020.08
2019-06-26T02:42:02.574Z,1020.08
2019-06-26T02:43:07.523Z,1020.08
2019-06-26T02:44:01.977Z,1020.08
2019-06-26T02:45:02.542Z,1020.08
2019-06-26T02:46:02.410Z,1020.18
2019-06-26T02:47:20.950Z,1020.18
2019-06-26T02:48:01.772Z,1020.18
2019-06-26T02:49:02.091Z,1020.18
2019-06-26T02:50:02.285Z,1020.24
2019-06-26T02:51:02.577Z,1020.24
2019-06-26T02:52:01.859Z,1020.24
2019-06-26T02:53:02.005Z,1020.24
2019-06-26T02:54:02.193Z,1020.33
2019-06-26T02:55:02.491Z,1020.33
2019-06-26T02:56:01.704Z,1020.33
2019-06-26T02:57:01.989Z,1020.33
2019-06-26T02:58:02.163Z,1020.33
2019-06-26T02:59:02.461Z,1020.33
2019-06-26T03:00:01.827Z,1020.33
2019-06-26T03:01:01.900Z,1020.33
2019-06-26T03:02:02.141Z,1020.45
2019-06-26T03:03:02.374Z,1020.45
2019-06-26T03:04:02.668Z,1020.45
2019-06-26T03:05:01.819Z,1020.45
2019-06-26T03:06:01.898Z,1020.57
2019-06-26T03:07:02.317Z,1020.57
2019-06-26T03:08:02.481Z,1020.57
2019-06-26T03:09:01.881Z,1020.57
2019-06-26T03:10:01.881Z,1020.62
2019-06-26T03:11:02.090Z,1020.62
2019-06-26T03:12:02.331Z,1020.62
2019-06-26T03:13:02.586Z,1020.62
2019-06-26T03:14:01.813Z,1020.59
2019-06-26T03:15:09.912Z,1020.59
2019-06-26T03:16:02.285Z,1020.59
2019-06-26T03:17:02.435Z,1020.59
2019-06-26T03:18:01.661Z,1020.62
2019-06-26T03:19:02.060Z,1020.62
2019-06-26T03:20:02.429Z,1020.62
2019-06-26T03:21:02.427Z,1020.62
2019-06-26T03:22:02.602Z,1020.85
2019-06-26T03:23:01.758Z,1020.85
2019-06-26T03:24:01.975Z,1020.85
2019-06-26T03:25:02.332Z,1020.85
2019-06-26T03:26:02.513Z,1020.77
2019-06-26T03:27:01.713Z,1020.77
2019-06-26T03:28:01.987Z,1020.77
2019-06-26T03:29:02.167Z,1020.77
2019-06-26T03:30:02.513Z,1020.89
2019-06-26T03:31:02.632Z,1020.89
2019-06-26T03:32:01.868Z,1020.89
2019-06-26T03:33:02.090Z,1020.89
2019-06-26T03:34:02.313Z,1020.95
2019-06-26T03:35:02.573Z,1020.95
2019-06-26T03:36:01.655Z,1020.95
2019-06-26T03:37:01.953Z,1020.95
2019-06-26T03:38:02.178Z,1021.06
2019-06-26T03:39:02.428Z,1021.06
2019-06-26T03:40:02.728Z,1021.06
2019-06-26T03:41:01.898Z,1021.06
2019-06-26T03:42:02.182Z,1021.08
2019-06-26T03:43:02.330Z,1021.08
2019-06-26T03:44:02.550Z,1021.08
2019-06-26T03:45:02.151Z,1021.08
2019-06-26T03:46:02.020Z,1021.05
2019-06-26T03:47:06.867Z,1021.05
2019-06-26T03:48:02.473Z,1021.05
2019-06-26T03:49:01.742Z,1021.05
2019-06-26T03:50:02.372Z,1020.9
2019-06-26T03:51:02.192Z,1020.9
2019-06-26T03:52:02.429Z,1020.9
2019-06-26T03:53:01.769Z,1020.9
2019-06-26T03:54:01.873Z,1021.13
2019-06-26T03:55:02.173Z,1021.13
2019-06-26T03:56:02.418Z,1021.13
2019-06-26T03:57:01.641Z,1021.13
2019-06-26T03:58:01.946Z,1021.18
2019-06-26T03:59:02.208Z,1021.18
2019-06-26T04:00:03.504Z,1021.18
2019-06-26T04:01:02.375Z,1021.18
2019-06-26T04:02:02.628Z,1021.2
2019-06-26T04:03:01.933Z,1021.2
2019-06-26T04:04:02.036Z,1021.2
2019-06-26T04:05:02.235Z,1021.2
2019-06-26T04:06:02.330Z,1021.3
2019-06-26T04:07:02.618Z,1021.3
2019-06-26T04:08:01.873Z,1021.3
2019-06-26T04:09:02.075Z,1021.3
2019-06-26T04:10:02.303Z,1021.31
2019-06-26T04:11:02.514Z,1021.31
2019-06-26T04:12:02.695Z,1021.31
2019-06-26T04:13:01.841Z,1021.35
2019-06-26T04:14:02.105Z,1021.35
2019-06-26T04:15:02.313Z,1021.35
2019-06-26T04:16:02.439Z,1021.35
2019-06-26T04:17:01.656Z,1021.46
2019-06-26T04:18:01.899Z,1021.46
2019-06-26T04:19:02.020Z,1021.46
2019-06-26T04:20:02.286Z,1021.46
2019-06-26T04:21:02.482Z,1021.38
2019-06-26T04:22:01.794Z,1021.38
2019-06-26T04:23:01.917Z,1021.38
2019-06-26T04:24:02.127Z,1021.38
2019-06-26T04:25:02.529Z,1021.46
2019-06-26T04:26:01.720Z,1021.46
2019-06-26T04:27:01.969Z,1021.46
2019-06-26T04:28:06.157Z,1021.46
2019-06-26T04:29:02.332Z,1021.6
2019-06-26T04:30:02.704Z,1021.6
2019-06-26T04:31:01.896Z,1021.6
2019-06-26T04:32:02.138Z,1021.6
2019-06-26T04:33:02.516Z,1021.58
2019-06-26T04:34:02.511Z,1021.58
2019-06-26T04:35:01.803Z,1021.58
2019-06-26T04:36:01.963Z,1021.58
2019-06-26T04:37:02.168Z,1021.82
2019-06-26T04:38:02.415Z,1021.82
2019-06-26T04:39:02.591Z,1021.82
2019-06-26T04:40:01.959Z,1021.82
2019-06-26T04:41:02.150Z,1021.74
2019-06-26T04:42:02.275Z,1021.74
2019-06-26T04:43:02.480Z,1021.74
2019-06-26T04:44:01.730Z,1021.74
2019-06-26T04:45:02.022Z,1021.71
2019-06-26T04:46:02.160Z,1021.71
2019-06-26T04:47:02.336Z,1021.71
2019-06-26T04:48:02.458Z,1021.71
2019-06-26T04:49:01.709Z,1021.95
2019-06-26T04:50:02.066Z,1021.95
2019-06-26T04:51:02.230Z,1021.95
2019-06-26T04:52:02.354Z,1021.95
2019-06-26T04:53:02.544Z,1021.93
2019-06-26T04:54:01.739Z,1021.93
2019-06-26T04:55:02.018Z,1021.93
2019-06-26T04:56:02.281Z,1021.93
2019-06-26T04:57:02.461Z,1021.93
2019-06-26T04:58:01.726Z,1021.93
2019-06-26T04:59:01.977Z,1021.93
2019-06-26T05:00:04.287Z,1021.93
2019-06-26T05:01:01.925Z,1021.99
2019-06-26T05:02:02.164Z,1021.99
2019-06-26T05:03:02.928Z,1021.99
2019-06-26T05:04:02.627Z,1021.99
2019-06-26T05:05:01.925Z,1022.03
2019-06-26T05:06:02.035Z,1022.03
2019-06-26T05:07:02.201Z,1022.03
2019-06-26T05:08:02.464Z,1022.03
2019-06-26T05:09:01.630Z,1021.99
2019-06-26T05:10:02.146Z,1021.99
2019-06-26T05:11:02.105Z,1021.99
2019-06-26T05:12:02.370Z,1021.99
2019-06-26T05:13:02.589Z,1022.13
2019-06-26T05:14:01.782Z,1022.13
2019-06-26T05:15:02.043Z,1022.13
2019-06-26T05:16:20.171Z,1022.13
2019-06-26T05:17:02.445Z,1022.28
2019-06-26T05:18:01.655Z,1022.28
2019-06-26T05:19:01.848Z,1022.28
2019-06-26T05:20:02.248Z,1022.28
2019-06-26T05:21:02.318Z,1022.23
2019-06-26T05:22:02.457Z,1022.23
2019-06-26T05:23:01.643Z,1022.23
2019-06-26T05:24:01.984Z,1022.23
2019-06-26T05:25:02.288Z,1022.36
2019-06-26T05:26:02.417Z,1022.36
2019-06-26T05:27:02.574Z,1022.36
2019-06-26T05:28:01.851Z,1022.36
2019-06-26T05:29:02.078Z,1022.39
2019-06-26T05:30:02.470Z,1022.39
2019-06-26T05:31:02.550Z,1022.39
2019-06-26T05:32:01.847Z,1022.39
2019-06-26T05:33:02.044Z,1022.46
2019-06-26T05:34:02.475Z,1022.46
2019-06-26T05:35:02.528Z,1022.46
2019-06-26T05:36:01.938Z,1022.46
2019-06-26T05:37:02.242Z,1022.56
2019-06-26T05:38:02.500Z,1022.56
2019-06-26T05:39:01.673Z,1022.56
2019-06-26T05:40:02.043Z,1022.56
2019-06-26T05:41:02.243Z,1022.69
2019-06-26T05:42:05.747Z,1022.69
2019-06-26T05:43:02.602Z,1022.69
2019-06-26T05:44:01.997Z,1022.69
2019-06-26T05:45:02.434Z,1022.78
2019-06-26T05:46:02.262Z,1022.78
2019-06-26T05:47:02.437Z,1022.78
2019-06-26T05:48:02.860Z,1022.78
2019-06-26T05:49:01.880Z,1022.87
2019-06-26T05:50:02.031Z,1022.87
2019-06-26T05:51:02.263Z,1022.87
2019-06-26T05:52:02.531Z,1022.87
2019-06-26T05:53:01.676Z,1022.88
2019-06-26T05:54:01.833Z,1022.88
2019-06-26T05:55:02.591Z,1022.88
2019-06-26T05:56:02.396Z,1022.95
2019-06-26T05:57:02.487Z,1022.95
2019-06-26T05:58:01.700Z,1022.95
2019-06-26T05:59:02.004Z,1022.95
2019-06-26T06:00:04.848Z,1023.04
2019-06-26T06:01:02.601Z,1023.04
2019-06-26T06:02:01.893Z,1023.04
2019-06-26T06:03:02.128Z,1023.04
2019-06-26T06:04:02.300Z,1023
2019-06-26T06:05:02.563Z,1023
2019-06-26T06:06:01.817Z,1023
2019-06-26T06:07:02.038Z,1023
2019-06-26T06:08:02.382Z,1023.08
2019-06-26T06:09:02.774Z,1023.08
2019-06-26T06:10:01.673Z,1023.08
2019-06-26T06:11:02.077Z,1023.08
2019-06-26T06:12:02.122Z,1023.17
2019-06-26T06:13:02.290Z,1023.17
2019-06-26T06:14:02.525Z,1023.17
2019-06-26T06:15:01.903Z,1023.17
2019-06-26T06:16:02.044Z,1023.12
2019-06-26T06:17:02.288Z,1023.12
2019-06-26T06:18:02.517Z,1023.12
2019-06-26T06:19:01.787Z,1023.12
2019-06-26T06:20:02.341Z,1023.24
2019-06-26T06:21:02.263Z,1023.24
2019-06-26T06:22:02.583Z,1023.24
2019-06-26T06:23:01.729Z,1023.24
2019-06-26T06:24:01.938Z,1023.33
2019-06-26T06:25:03.253Z,1023.33
2019-06-26T06:26:02.689Z,1023.33
2019-06-26T06:27:02.578Z,1023.33
2019-06-26T06:28:01.753Z,1023.44
2019-06-26T06:29:02.776Z,1023.44
2019-06-26T06:30:02.710Z,1023.44
2019-06-26T06:31:01.641Z,1023.44
2019-06-26T06:32:01.903Z,1023.56
2019-06-26T06:33:02.241Z,1023.56
2019-06-26T06:34:02.275Z,1023.56
2019-06-26T06:35:02.573Z,1023.56
2019-06-26T06:36:01.801Z,1023.44
2019-06-26T06:37:02.062Z,1023.44
2019-06-26T06:38:02.267Z,1023.44
2019-06-26T06:39:02.480Z,1023.44
2019-06-26T06:40:01.999Z,1023.6
2019-06-26T06:41:02.145Z,1023.6
2019-06-26T06:42:02.258Z,1023.6
2019-06-26T06:43:02.571Z,1023.6
2019-06-26T06:44:01.711Z,1023.61
2019-06-26T06:45:02.351Z,1023.61
2019-06-26T06:46:02.217Z,1023.61
2019-06-26T06:47:08.002Z,1023.61
2019-06-26T06:48:01.682Z,1023.67
2019-06-26T06:49:01.894Z,1023.67
2019-06-26T06:50:02.113Z,1023.67
2019-06-26T06:51:02.358Z,1023.67
2019-06-26T06:52:02.534Z,1023.79
2019-06-26T06:53:01.773Z,1023.79
2019-06-26T06:54:02.034Z,1023.79
2019-06-26T06:55:02.603Z,1023.79
2019-06-26T06:56:02.562Z,1023.79
2019-06-26T06:57:01.726Z,1023.79
2019-06-26T06:58:01.955Z,1023.79
2019-06-26T06:59:02.190Z,1023.79
2019-06-26T07:00:04.894Z,1023.98
2019-06-26T07:01:01.725Z,1023.98
2019-06-26T07:02:01.920Z,1023.98
2019-06-26T07:03:02.112Z,1023.98
2019-06-26T07:04:02.546Z,1024.11
2019-06-26T07:05:02.604Z,1024.11
2019-06-26T07:06:01.998Z,1024.11
2019-06-26T07:07:02.172Z,1024.11
2019-06-26T07:08:02.313Z,1024.15
2019-06-26T07:09:02.507Z,1024.15
2019-06-26T07:10:01.874Z,1024.15
2019-06-26T07:11:01.966Z,1024.15
2019-06-26T07:12:02.201Z,1024.21
2019-06-26T07:13:02.458Z,1024.21
2019-06-26T07:14:01.777Z,1024.21
2019-06-26T07:15:02.112Z,1024.21
2019-06-26T07:16:02.274Z,1024.51
2019-06-26T07:17:02.430Z,1024.51
2019-06-26T07:18:01.694Z,1024.51
2019-06-26T07:19:01.912Z,1024.51
2019-06-26T07:20:02.249Z,1024.54
2019-06-26T07:21:02.370Z,1024.54
2019-06-26T07:22:02.589Z,1024.54
2019-06-26T07:23:01.806Z,1024.54
2019-06-26T07:24:02.094Z,1024.77
2019-06-26T07:25:02.417Z,1024.77
2019-06-26T07:26:02.635Z,1024.77
2019-06-26T07:27:01.829Z,1024.77
2019-06-26T07:28:02.606Z,1024.81
2019-06-26T07:29:02.308Z,1024.81
2019-06-26T07:30:02.544Z,1024.81
2019-06-26T07:31:01.771Z,1024.81
2019-06-26T07:32:02.039Z,1024.83
2019-06-26T07:33:02.342Z,1024.83
2019-06-26T07:34:02.661Z,1024.83
2019-06-26T07:35:01.832Z,1024.83
2019-06-26T07:36:02.145Z,1025.02
2019-06-26T07:37:02.648Z,1025.02
2019-06-26T07:38:02.709Z,1025.02
2019-06-26T07:39:01.723Z,1024.81
2019-06-26T07:40:02.801Z,1024.81
2019-06-26T07:41:02.187Z,1024.81
2019-06-26T07:42:02.542Z,1024.81
2019-06-26T07:43:01.798Z,1024.92
2019-06-26T07:44:01.922Z,1024.92
2019-06-26T07:45:02.255Z,1024.92
2019-06-26T07:46:02.389Z,1024.92
2019-06-26T07:47:02.679Z,1024.98
2019-06-26T07:48:01.710Z,1024.98
2019-06-26T07:49:02.033Z,1024.98
2019-06-26T07:50:02.444Z,1024.98
2019-06-26T07:51:02.541Z,1025.11
2019-06-26T07:52:02.612Z,1025.11
2019-06-26T07:53:01.855Z,1025.11
2019-06-26T07:54:02.091Z,1025.11
2019-06-26T07:55:02.430Z,1025.11
2019-06-26T07:56:02.573Z,1025.11
2019-06-26T07:57:01.732Z,1025.11
2019-06-26T07:58:01.972Z,1025.11
2019-06-26T07:59:02.163Z,1025.24
2019-06-26T08:00:07.042Z,1025.24
2019-06-26T08:01:02.423Z,1025.24
2019-06-26T08:02:01.676Z,1025.24
2019-06-26T08:03:04.961Z,1025.27
2019-06-26T08:04:02.156Z,1025.27
2019-06-26T08:05:02.378Z,1025.27
2019-06-26T08:06:01.622Z,1025.27
2019-06-26T08:07:01.861Z,1025.5
2019-06-26T08:08:02.043Z,1025.5
2019-06-26T08:09:02.321Z,1025.5
2019-06-26T08:10:02.550Z,1025.5
2019-06-26T08:11:01.797Z,1025.5
2019-06-26T08:12:02.038Z,1025.5
2019-06-26T08:13:02.432Z,1025.5
2019-06-26T08:14:02.465Z,1025.5
2019-06-26T08:15:02.636Z,1025.51
2019-06-26T08:16:01.965Z,1025.51
2019-06-26T08:17:02.171Z,1025.51
2019-06-26T08:18:02.407Z,1025.51
2019-06-26T08:19:02.643Z,1025.49
2019-06-26T08:20:01.861Z,1025.49
2019-06-26T08:21:13.373Z,1025.49
2019-06-26T08:22:02.346Z,1025.49
2019-06-26T08:23:02.454Z,1025.49
2019-06-26T08:24:01.704Z,1025.49
2019-06-26T08:25:01.955Z,1025.49
2019-06-26T08:26:02.249Z,1025.49
2019-06-26T08:27:02.227Z,1025.55
2019-06-26T08:28:02.606Z,1025.55
2019-06-26T08:29:01.662Z,1025.55
2019-06-26T08:30:02.150Z,1025.55
2019-06-26T08:31:02.175Z,1025.63
2019-06-26T08:32:02.305Z,1025.63
2019-06-26T08:33:02.653Z,1025.63
2019-06-26T08:34:01.826Z,1025.63
2019-06-26T08:35:02.111Z,1025.48
2019-06-26T08:36:02.246Z,1025.48
2019-06-26T08:37:02.447Z,1025.48
2019-06-26T08:38:15.656Z,1025.48
2019-06-26T08:39:02.011Z,1025.33
2019-06-26T08:40:02.330Z,1025.33
2019-06-26T08:41:02.555Z,1025.33
2019-06-26T08:42:01.826Z,1025.33
2019-06-26T08:43:02.064Z,1025.18
2019-06-26T08:44:02.241Z,1025.18
2019-06-26T08:45:02.604Z,1025.18
2019-06-26T08:46:02.110Z,1025.18
2019-06-26T08:47:01.946Z,1025.29
2019-06-26T08:48:38.942Z,1025.29
2019-06-26T08:49:01.950Z,1025.29
2019-06-26T08:50:02.937Z,1025.29
2019-06-26T08:51:02.373Z,1025.4
2019-06-26T08:52:02.750Z,1025.4
2019-06-26T08:53:01.668Z,1025.4
2019-06-26T08:54:05.206Z,1025.4
2019-06-26T08:55:02.172Z,1025.46
2019-06-26T08:56:02.317Z,1025.46
2019-06-26T08:57:02.668Z,1025.46
2019-06-26T08:58:01.772Z,1025.46
2019-06-26T08:59:01.996Z,1025.39
2019-06-26T09:00:04.087Z,1025.39
2019-06-26T09:01:01.908Z,1025.39
2019-06-26T09:02:02.163Z,1025.39
2019-06-26T09:03:02.248Z,1025.58
2019-06-26T09:04:02.521Z,1025.58
2019-06-26T09:05:01.712Z,1025.58
2019-06-26T09:06:02.090Z,1025.58
2019-06-26T09:07:02.167Z,1025.6
2019-06-26T09:08:02.601Z,1025.6
2019-06-26T09:09:02.671Z,1025.6
2019-06-26T09:10:02.246Z,1025.6
2019-06-26T09:11:02.081Z,1025.62
2019-06-26T09:12:02.056Z,1025.62
2019-06-26T09:13:02.412Z,1025.62
2019-06-26T09:14:02.572Z,1025.62
2019-06-26T09:15:02.028Z,1025.72
2019-06-26T09:16:02.101Z,1025.72
2019-06-26T09:17:02.348Z,1025.72
2019-06-26T09:18:02.556Z,1025.58
2019-06-26T09:19:01.888Z,1025.58
2019-06-26T09:20:02.370Z,1025.58
2019-06-26T09:21:02.377Z,1025.58
2019-06-26T09:22:02.688Z,1025.52
2019-06-26T09:23:02.205Z,1025.52
2019-06-26T09:24:02.061Z,1025.52
2019-06-26T09:25:22.528Z,1025.52
2019-06-26T09:26:02.444Z,1025.65
2019-06-26T09:27:02.633Z,1025.65
2019-06-26T09:28:01.924Z,1025.65
2019-06-26T09:29:02.117Z,1025.65
2019-06-26T09:30:02.326Z,1025.59
2019-06-26T09:31:02.617Z,1025.59
2019-06-26T09:32:02.001Z,1025.59
2019-06-26T09:33:02.103Z,1025.59
2019-06-26T09:34:02.331Z,1025.6
2019-06-26T09:35:02.562Z,1025.6
2019-06-26T09:36:01.824Z,1025.6
2019-06-26T09:37:02.007Z,1025.6
2019-06-26T09:38:02.239Z,1025.77
2019-06-26T09:39:02.448Z,1025.77
2019-06-26T09:40:01.723Z,1025.77
2019-06-26T09:41:01.899Z,1025.77
2019-06-26T09:42:02.210Z,1025.74
2019-06-26T09:43:02.371Z,1025.74
2019-06-26T09:44:02.579Z,1025.74
2019-06-26T09:45:02.327Z,1025.74
2019-06-26T09:46:02.024Z,1025.66
2019-06-26T09:47:02.234Z,1025.66
2019-06-26T09:48:02.411Z,1025.66
2019-06-26T09:49:01.770Z,1025.66
2019-06-26T09:50:02.361Z,1025.85
2019-06-26T09:51:02.165Z,1025.85
2019-06-26T09:52:02.389Z,1025.85
2019-06-26T09:53:05.886Z,1025.85
2019-06-26T09:54:01.882Z,1025.96
2019-06-26T09:55:02.351Z,1025.96
2019-06-26T09:56:02.291Z,1025.96
2019-06-26T09:57:02.497Z,1025.96
2019-06-26T09:58:01.681Z,1025.91
2019-06-26T09:59:01.839Z,1025.91
2019-06-26T10:00:03.850Z,1025.91
2019-06-26T10:01:02.329Z,1025.91
2019-06-26T10:02:02.540Z,1025.81
2019-06-26T10:03:01.801Z,1025.81
2019-06-26T10:04:02.077Z,1025.81
2019-06-26T10:05:02.884Z,1025.81
2019-06-26T10:06:02.419Z,1025.87
2019-06-26T10:07:02.569Z,1025.87
2019-06-26T10:08:01.972Z,1025.87
2019-06-26T10:09:02.043Z,1025.87
2019-06-26T10:10:02.404Z,1025.9
2019-06-26T10:11:02.570Z,1025.9
2019-06-26T10:12:01.735Z,1025.9
2019-06-26T10:13:02.074Z,1025.9
2019-06-26T10:14:02.243Z,1025.94
2019-06-26T10:15:02.468Z,1025.94
2019-06-26T10:16:01.776Z,1025.94
2019-06-26T10:17:01.941Z,1025.94
2019-06-26T10:18:02.161Z,1026.14
2019-06-26T10:19:11.254Z,1026.14
2019-06-26T10:20:02.499Z,1026.14
2019-06-26T10:21:02.138Z,1026.14
2019-06-26T10:22:01.992Z,1026.21
2019-06-26T10:23:02.154Z,1026.21
2019-06-26T10:24:02.402Z,1026.21
2019-06-26T10:25:02.663Z,1026.21
2019-06-26T10:26:05.455Z,1026.07
2019-06-26T10:27:02.114Z,1026.07
2019-06-26T10:28:02.868Z,1026.07
2019-06-26T10:29:02.637Z,1026.07
2019-06-26T10:30:01.800Z,1026.19
2019-06-26T10:31:02.229Z,1026.19
2019-06-26T10:32:02.676Z,1026.19
2019-06-26T10:33:02.586Z,1026.19
2019-06-26T10:34:01.950Z,1026.19
2019-06-26T10:35:02.085Z,1026.19
2019-06-26T10:36:02.405Z,1026.19
2019-06-26T10:37:02.528Z,1026.19
2019-06-26T10:38:01.787Z,1026.23
2019-06-26T10:39:02.153Z,1026.23
2019-06-26T10:40:02.363Z,1026.23
2019-06-26T10:41:01.967Z,1026.23
2019-06-26T10:42:02.102Z,1026.27
2019-06-26T10:43:02.299Z,1026.27
2019-06-26T10:44:02.521Z,1026.27
2019-06-26T10:45:01.676Z,1026.27
2019-06-26T10:46:01.953Z,1026.19
2019-06-26T10:47:02.113Z,1026.19
2019-06-26T10:48:02.467Z,1026.19
2019-06-26T10:49:02.500Z,1026.19
2019-06-26T10:50:01.887Z,1026.19
2019-06-26T10:51:02.112Z,1026.19
2019-06-26T10:52:02.304Z,1026.19
2019-06-26T10:53:02.471Z,1026.19
2019-06-26T10:54:01.806Z,1026.3
2019-06-26T10:55:02.034Z,1026.3
2019-06-26T10:56:02.334Z,1026.3
2019-06-26T10:57:02.474Z,1026.3
2019-06-26T10:58:01.685Z,1026.33
2019-06-26T10:59:01.985Z,1026.33
2019-06-26T11:00:03.991Z,1026.33
2019-06-26T11:01:01.849Z,1026.43
2019-06-26T11:02:02.018Z,1026.43
2019-06-26T11:03:02.478Z,1026.43
2019-06-26T11:04:02.588Z,1026.43
2019-06-26T11:05:01.840Z,1026.49
2019-06-26T11:06:01.964Z,1026.49
2019-06-26T11:07:02.197Z,1026.49
2019-06-26T11:08:02.362Z,1026.49
2019-06-26T11:09:02.688Z,1026.31
2019-06-26T11:10:02.226Z,1026.31
2019-06-26T11:11:02.035Z,1026.31
2019-06-26T11:12:02.486Z,1026.31
2019-06-26T11:13:02.835Z,1026.35
2019-06-26T11:14:01.867Z,1026.35
2019-06-26T11:15:02.242Z,1026.35
2019-06-26T11:16:02.245Z,1026.35
2019-06-26T11:17:02.541Z,1026.41
2019-06-26T11:18:01.664Z,1026.41
2019-06-26T11:19:01.930Z,1026.41
2019-06-26T11:20:02.222Z,1026.41
2019-06-26T11:21:02.435Z,1026.4
2019-06-26T11:22:02.540Z,1026.4
2019-06-26T11:23:01.798Z,1026.4
2019-06-26T11:24:01.958Z,1026.4
2019-06-26T11:25:02.318Z,1026.45
2019-06-26T11:26:02.481Z,1026.45
2019-06-26T11:27:01.653Z,1026.45
2019-06-26T11:28:01.855Z,1026.45
2019-06-26T11:29:02.348Z,1026.45
2019-06-26T11:30:02.528Z,1026.45
2019-06-26T11:31:01.706Z,1026.45
2019-06-26T11:32:01.928Z,1026.45
2019-06-26T11:33:02.543Z,1026.53
2019-06-26T11:34:02.440Z,1026.53
2019-06-26T11:35:01.718Z,1026.53
2019-06-26T11:36:01.898Z,1026.53
2019-06-26T11:37:04.868Z,1026.67
2019-06-26T11:38:02.282Z,1026.67
2019-06-26T11:39:02.517Z,1026.67
2019-06-26T11:40:02.327Z,1026.67
2019-06-26T11:41:02.438Z,1026.61
2019-06-26T11:42:02.191Z,1026.61
2019-06-26T11:43:02.433Z,1026.61
2019-06-26T11:44:01.820Z,1026.61
2019-06-26T11:45:02.291Z,1026.62
2019-06-26T11:46:02.446Z,1026.62
2019-06-26T11:47:02.086Z,1026.62
2019-06-26T11:48:02.277Z,1026.62
2019-06-26T11:49:02.596Z,1026.79
2019-06-26T11:50:01.820Z,1026.79
2019-06-26T11:51:02.109Z,1026.79
2019-06-26T11:52:02.308Z,1026.79
2019-06-26T11:53:02.411Z,1026.83
2019-06-26T11:54:02.580Z,1026.83
2019-06-26T11:55:04.346Z,1026.83
2019-06-26T11:56:02.041Z,1026.83
2019-06-26T11:57:02.307Z,1026.77
2019-06-26T11:58:02.783Z,1026.77
2019-06-26T11:59:01.786Z,1026.77
2019-06-26T12:00:03.794Z,1026.77
2019-06-26T12:01:01.838Z,1026.66
2019-06-26T12:02:01.895Z,1026.66
2019-06-26T12:03:02.088Z,1026.66
2019-06-26T12:04:02.319Z,1026.66
2019-06-26T12:05:02.545Z,1026.69
2019-06-26T12:06:19.408Z,1026.69
2019-06-26T12:07:02.043Z,1026.69
2019-06-26T12:08:02.203Z,1026.69